createdAt,value
2022-08-31T00:00:31.275Z,11.43
2022-08-31T00:01:52.324Z,11.41
2022-08-31T00:03:14.639Z,11.39
2022-08-31T00:04:18.312Z,11.36
2022-08-31T00:05:20.441Z,11.34
2022-08-31T00:06:24.146Z,11.33
2022-08-31T00:07:27.611Z,11.31
2022-08-31T00:08:32.606Z,11.30
2022-08-31T00:09:35.271Z,11.29
2022-08-31T00:10:43.230Z,11.29
2022-08-31T00:11:47.121Z,11.27
2022-08-31T00:12:50.546Z,11.27
2022-08-31T00:13:57.890Z,11.25
2022-08-31T00:15:02.737Z,11.25
2022-08-31T00:16:04.944Z,11.25
2022-08-31T00:17:08.131Z,11.18
2022-08-31T00:18:12.153Z,11.23
2022-08-31T00:19:15.902Z,11.20
2022-08-31T00:20:32.647Z,11.21
2022-08-31T00:21:39.523Z,11.21
2022-08-31T00:22:41.949Z,11.17
2022-08-31T00:23:45.008Z,11.21
2022-08-31T00:24:47.048Z,11.20
2022-08-31T00:25:50.936Z,11.19
2022-08-31T00:26:53.025Z,11.19
2022-08-31T00:27:56.210Z,11.18
2022-08-31T00:28:58.252Z,11.18
2022-08-31T00:30:01.291Z,11.17
2022-08-31T00:31:03.343Z,11.17
2022-08-31T00:32:06.871Z,11.17
2022-08-31T00:33:09.861Z,11.15
2022-08-31T00:34:14.349Z,11.15
2022-08-31T00:35:16.530Z,11.09
2022-08-31T00:36:22.091Z,11.12
2022-08-31T00:37:24.338Z,11.09
2022-08-31T00:38:28.393Z,11.11
2022-08-31T00:39:30.906Z,11.09
2022-08-31T00:40:38.146Z,11.09
2022-08-31T00:41:47.945Z,11.08
2022-08-31T00:42:51.559Z,11.08
2022-08-31T00:43:56.460Z,11.07
2022-08-31T00:44:59.649Z,11.06
2022-08-31T00:46:02.115Z,11.07
2022-08-31T00:47:05.799Z,11.05
2022-08-31T00:48:07.833Z,11.06
2022-08-31T00:49:14.512Z,11.04
2022-08-31T00:50:19.585Z,11.04
2022-08-31T00:51:23.108Z,11.02
2022-08-31T00:52:29.460Z,11.02
2022-08-31T00:53:39.990Z,11.01
2022-08-31T00:54:46.498Z,11.01
2022-08-31T00:55:49.867Z,11.00
2022-08-31T00:56:54.009Z,10.98
2022-08-31T00:58:01.008Z,10.99
2022-08-31T00:59:03.634Z,10.96
2022-08-31T01:00:10.467Z,10.96
2022-08-31T01:01:15.053Z,10.97
2022-08-31T01:02:18.818Z,10.90
2022-08-31T01:03:22.956Z,10.92
2022-08-31T01:04:26.111Z,10.94
2022-08-31T01:05:30.974Z,10.92
2022-08-31T01:06:34.704Z,10.93
2022-08-31T01:07:37.387Z,10.92
2022-08-31T01:08:40.418Z,10.91
2022-08-31T01:09:45.150Z,10.90
2022-08-31T01:10:59.895Z,10.91
2022-08-31T01:12:03.686Z,10.89
2022-08-31T01:13:08.999Z,10.90
2022-08-31T01:14:12.650Z,10.83
2022-08-31T01:15:16.267Z,10.86
2022-08-31T01:16:23.623Z,10.87
2022-08-31T01:17:26.081Z,10.78
2022-08-31T01:18:30.411Z,10.87
2022-08-31T01:19:36.433Z,10.86
2022-08-31T01:20:49.137Z,10.86
2022-08-31T01:22:01.166Z,10.84
2022-08-31T01:23:11.483Z,10.85
2022-08-31T01:24:15.984Z,10.85
2022-08-31T01:25:19.969Z,10.84
2022-08-31T01:26:26.546Z,10.81
2022-08-31T01:27:33.345Z,10.85
2022-08-31T01:28:36.566Z,10.85
2022-08-31T01:29:38.777Z,10.83
2022-08-31T01:30:43.002Z,10.82
2022-08-31T01:31:47.637Z,10.82
2022-08-31T01:32:51.220Z,10.81
2022-08-31T01:33:54.745Z,10.79
2022-08-31T01:35:00.791Z,10.80
2022-08-31T01:36:03.733Z,10.79
2022-08-31T01:37:07.007Z,10.74
2022-08-31T01:38:10.978Z,10.78
2022-08-31T01:39:14.065Z,10.77
2022-08-31T01:40:17.166Z,10.77
2022-08-31T01:41:20.275Z,10.76
2022-08-31T01:42:22.418Z,10.76
2022-08-31T01:43:25.963Z,10.76
2022-08-31T01:44:28.461Z,10.76
2022-08-31T01:45:31.504Z,10.76
2022-08-31T01:46:36.866Z,10.76
2022-08-31T01:47:40.377Z,10.73
2022-08-31T01:48:48.554Z,10.75
2022-08-31T01:49:50.645Z,10.76
2022-08-31T01:50:56.290Z,10.76
2022-08-31T01:51:58.415Z,10.75
2022-08-31T01:53:01.499Z,10.74
2022-08-31T01:54:07.654Z,10.73
2022-08-31T01:55:10.579Z,10.72
2022-08-31T01:56:14.496Z,10.70
2022-08-31T01:57:16.628Z,10.68
2022-08-31T01:58:46.779Z,10.66
2022-08-31T02:00:08.283Z,10.65
2022-08-31T02:01:33.107Z,10.64
2022-08-31T02:02:38.222Z,10.61
2022-08-31T02:03:40.721Z,10.59
2022-08-31T02:04:43.815Z,10.60
2022-08-31T02:05:45.895Z,10.59
2022-08-31T02:06:55.230Z,10.58
2022-08-31T02:07:57.825Z,10.56
2022-08-31T02:09:01.256Z,10.55
2022-08-31T02:10:05.329Z,10.55
2022-08-31T02:11:09.179Z,10.52
2022-08-31T02:12:12.788Z,10.55
2022-08-31T02:13:16.054Z,10.54
2022-08-31T02:14:19.070Z,10.55
2022-08-31T02:15:22.183Z,10.55
2022-08-31T02:16:24.491Z,10.52
2022-08-31T02:17:27.751Z,10.55
2022-08-31T02:18:30.058Z,10.53
2022-08-31T02:19:33.197Z,10.54
2022-08-31T02:20:35.385Z,10.52
2022-08-31T02:21:38.980Z,10.51
2022-08-31T02:22:42.921Z,10.50
2022-08-31T02:23:46.370Z,10.45
2022-08-31T02:24:48.493Z,10.47
2022-08-31T02:25:55.649Z,10.46
2022-08-31T02:26:57.826Z,10.45
2022-08-31T02:28:02.074Z,10.42
2022-08-31T02:29:07.335Z,10.41
2022-08-31T02:30:14.204Z,10.40
2022-08-31T02:31:16.292Z,10.38
2022-08-31T02:32:27.072Z,10.37
2022-08-31T02:33:29.146Z,10.34
2022-08-31T02:34:34.913Z,10.33
2022-08-31T02:35:38.371Z,10.33
2022-08-31T02:36:42.944Z,10.31
2022-08-31T02:37:45.037Z,10.27
2022-08-31T02:38:48.223Z,10.30
2022-08-31T02:39:50.353Z,10.28
2022-08-31T02:40:57.026Z,10.29
2022-08-31T02:41:59.375Z,10.29
2022-08-31T02:43:02.373Z,10.29
2022-08-31T02:44:04.864Z,10.28
2022-08-31T02:45:09.525Z,10.27
2022-08-31T02:46:12.843Z,10.27
2022-08-31T02:47:31.375Z,10.28
2022-08-31T02:49:01.406Z,10.28
2022-08-31T02:50:06.905Z,10.27
2022-08-31T02:51:10.236Z,10.30
2022-08-31T02:52:13.385Z,10.30
2022-08-31T02:53:18.991Z,10.29
2022-08-31T02:54:22.291Z,10.32
2022-08-31T02:55:25.696Z,10.33
2022-08-31T02:56:30.244Z,10.34
2022-08-31T02:57:32.510Z,10.35
2022-08-31T02:58:36.193Z,10.36
2022-08-31T02:59:38.393Z,10.36
2022-08-31T03:00:45.140Z,10.37
2022-08-31T03:01:48.052Z,10.37
2022-08-31T03:02:52.880Z,10.38
2022-08-31T03:03:55.994Z,10.38
2022-08-31T03:04:59.107Z,10.39
2022-08-31T03:06:01.288Z,10.41
2022-08-31T03:07:04.650Z,10.43
2022-08-31T03:08:06.831Z,10.42
2022-08-31T03:09:10.141Z,10.42
2022-08-31T03:10:14.084Z,10.44
2022-08-31T03:11:17.554Z,10.44
2022-08-31T03:12:21.029Z,10.43
2022-08-31T03:13:24.069Z,10.43
2022-08-31T03:14:26.675Z,10.43
2022-08-31T03:15:31.392Z,10.34
2022-08-31T03:16:39.206Z,10.42
2022-08-31T03:17:42.564Z,10.43
2022-08-31T03:18:46.173Z,10.42
2022-08-31T03:19:49.242Z,10.42
2022-08-31T03:20:51.294Z,10.40
2022-08-31T03:21:55.812Z,10.39
2022-08-31T03:22:59.406Z,10.39
2022-08-31T03:24:02.955Z,10.38
2022-08-31T03:25:07.456Z,10.35
2022-08-31T03:26:10.910Z,10.34
2022-08-31T03:27:12.947Z,10.33
2022-08-31T03:28:17.427Z,10.32
2022-08-31T03:29:34.590Z,10.30
2022-08-31T03:30:51.856Z,10.29
2022-08-31T03:31:54.165Z,10.27
2022-08-31T03:33:02.401Z,10.26
2022-08-31T03:34:06.348Z,10.26
2022-08-31T03:35:10.327Z,10.22
2022-08-31T03:36:15.847Z,10.23
2022-08-31T03:37:17.952Z,10.23
2022-08-31T03:38:21.549Z,10.22
2022-08-31T03:39:24.269Z,10.22
2022-08-31T03:40:27.784Z,10.22
2022-08-31T03:41:29.898Z,10.21
2022-08-31T03:42:33.908Z,10.21
2022-08-31T03:43:38.356Z,10.19
2022-08-31T03:44:41.588Z,10.19
2022-08-31T03:45:51.318Z,10.17
2022-08-31T03:46:56.444Z,10.17
2022-08-31T03:47:59.620Z,10.16
2022-08-31T03:49:04.669Z,10.15
2022-08-31T03:50:10.560Z,10.13
2022-08-31T03:51:26.818Z,10.12
2022-08-31T03:52:29.059Z,10.11
2022-08-31T03:53:48.294Z,10.09
2022-08-31T03:54:53.894Z,10.06
2022-08-31T03:56:01.906Z,10.06
2022-08-31T03:57:06.029Z,10.04
2022-08-31T03:58:09.602Z,10.03
2022-08-31T03:59:13.823Z,10.03
2022-08-31T04:00:35.934Z,10.02
2022-08-31T04:01:43.379Z,10.00
2022-08-31T04:03:05.284Z,9.99
2022-08-31T04:04:07.581Z,10.00
2022-08-31T04:05:21.245Z,9.98
2022-08-31T04:06:42.788Z,9.98
2022-08-31T04:08:04.648Z,9.96
2022-08-31T04:09:25.339Z,9.97
2022-08-31T04:10:55.142Z,9.96
2022-08-31T04:12:09.811Z,9.95
2022-08-31T04:13:35.960Z,9.95
2022-08-31T04:15:16.315Z,9.91
2022-08-31T04:16:36.947Z,9.94
2022-08-31T04:17:44.773Z,9.92
2022-08-31T04:19:09.270Z,9.91
2022-08-31T04:20:24.432Z,9.91
2022-08-31T04:21:33.258Z,9.90
2022-08-31T04:22:35.443Z,9.91
2022-08-31T04:24:11.877Z,9.88
2022-08-31T04:25:14.000Z,9.88
2022-08-31T04:26:23.838Z,9.87
2022-08-31T04:27:25.904Z,9.87
2022-08-31T04:28:29.201Z,9.88
2022-08-31T04:29:31.717Z,9.86
2022-08-31T04:30:39.168Z,9.85
2022-08-31T04:31:41.475Z,9.85
2022-08-31T04:32:44.990Z,9.84
2022-08-31T04:33:47.555Z,9.83
2022-08-31T04:34:56.281Z,9.83
2022-08-31T04:35:59.921Z,9.81
2022-08-31T04:37:01.990Z,9.81
2022-08-31T04:38:05.340Z,9.81
2022-08-31T04:39:08.126Z,9.79
2022-08-31T04:40:18.205Z,9.78
2022-08-31T04:41:24.029Z,9.77
2022-08-31T04:42:30.103Z,9.77
2022-08-31T04:43:32.386Z,9.77
2022-08-31T04:44:35.716Z,9.77
2022-08-31T04:45:42.760Z,9.77
2022-08-31T04:46:49.566Z,9.75
2022-08-31T04:47:51.959Z,9.75
2022-08-31T04:48:55.584Z,9.75
2022-08-31T04:49:58.148Z,9.75
2022-08-31T04:51:02.366Z,9.75
2022-08-31T04:52:04.426Z,9.75
2022-08-31T04:53:07.510Z,9.75
2022-08-31T04:54:12.480Z,9.75
2022-08-31T04:55:14.567Z,9.75
2022-08-31T04:56:21.354Z,9.74
2022-08-31T04:57:23.390Z,9.75
2022-08-31T04:58:26.480Z,9.75
2022-08-31T04:59:29.585Z,9.74
2022-08-31T05:00:53.532Z,9.75
2022-08-31T05:02:22.014Z,9.77
2022-08-31T05:03:40.680Z,9.77
2022-08-31T05:04:42.879Z,9.77
2022-08-31T05:05:46.894Z,9.79
2022-08-31T05:06:48.939Z,9.79
2022-08-31T05:07:52.158Z,9.80
2022-08-31T05:08:55.095Z,9.81
2022-08-31T05:09:58.377Z,9.81
2022-08-31T05:11:07.961Z,9.83
2022-08-31T05:12:11.008Z,9.84
2022-08-31T05:13:13.114Z,9.84
2022-08-31T05:14:16.452Z,9.84
2022-08-31T05:15:22.656Z,9.86
2022-08-31T05:16:27.746Z,9.88
2022-08-31T05:17:30.788Z,9.89
2022-08-31T05:18:33.458Z,9.91
2022-08-31T05:19:41.327Z,9.93
2022-08-31T05:20:43.445Z,9.96
2022-08-31T05:21:47.855Z,9.98
2022-08-31T05:22:50.399Z,10.00
2022-08-31T05:23:53.640Z,10.02
2022-08-31T05:24:56.672Z,10.04
2022-08-31T05:25:58.693Z,10.06
2022-08-31T05:27:01.817Z,10.08
2022-08-31T05:28:05.381Z,10.09
2022-08-31T05:29:10.403Z,10.12
2022-08-31T05:30:13.127Z,10.15
2022-08-31T05:31:24.323Z,10.16
2022-08-31T05:32:30.697Z,10.19
2022-08-31T05:33:34.741Z,10.21
2022-08-31T05:34:38.511Z,10.23
2022-08-31T05:35:40.856Z,10.26
2022-08-31T05:36:45.307Z,10.29
2022-08-31T05:37:50.700Z,10.32
2022-08-31T05:38:58.863Z,10.35
2022-08-31T05:40:03.825Z,10.37
2022-08-31T05:41:08.098Z,10.40
2022-08-31T05:42:15.270Z,10.42
2022-08-31T05:43:18.545Z,10.46
2022-08-31T05:44:22.930Z,10.47
2022-08-31T05:45:31.073Z,10.53
2022-08-31T05:46:34.852Z,10.55
2022-08-31T05:47:40.186Z,10.58
2022-08-31T05:48:46.691Z,10.61
2022-08-31T05:49:51.590Z,10.64
2022-08-31T05:51:00.983Z,10.68
2022-08-31T05:52:05.416Z,10.73
2022-08-31T05:53:08.958Z,10.76
2022-08-31T05:54:11.089Z,10.80
2022-08-31T05:55:14.383Z,10.83
2022-08-31T05:56:19.769Z,10.87
2022-08-31T05:57:26.843Z,10.91
2022-08-31T05:58:31.815Z,10.93
2022-08-31T05:59:35.944Z,10.98
2022-08-31T06:00:39.147Z,11.02
2022-08-31T06:02:05.334Z,11.07
2022-08-31T06:03:11.032Z,11.10
2022-08-31T06:04:14.764Z,11.14
2022-08-31T06:05:19.090Z,11.17
2022-08-31T06:06:24.603Z,11.22
2022-08-31T06:07:26.963Z,11.25
2022-08-31T06:08:35.776Z,11.29
2022-08-31T06:09:39.544Z,11.34
2022-08-31T06:10:44.589Z,11.38
2022-08-31T06:11:48.199Z,11.38
2022-08-31T06:12:53.030Z,11.49
2022-08-31T06:13:59.541Z,11.53
2022-08-31T06:15:05.320Z,11.57
2022-08-31T06:16:09.861Z,11.63
2022-08-31T06:17:13.111Z,11.67
2022-08-31T06:18:16.497Z,11.73
2022-08-31T06:19:19.543Z,11.78
2022-08-31T06:20:23.888Z,11.82
2022-08-31T06:21:29.066Z,11.85
2022-08-31T06:22:32.705Z,11.93
2022-08-31T06:23:35.682Z,11.98
2022-08-31T06:24:39.241Z,12.04
2022-08-31T06:25:41.267Z,12.10
2022-08-31T06:26:45.643Z,12.16
2022-08-31T06:27:53.083Z,12.23
2022-08-31T06:28:59.199Z,12.28
2022-08-31T06:30:06.913Z,12.35
2022-08-31T06:31:16.203Z,12.42
2022-08-31T06:32:19.954Z,12.49
2022-08-31T06:33:32.394Z,12.55
2022-08-31T06:34:50.167Z,12.62
2022-08-31T06:36:19.551Z,12.69
2022-08-31T06:37:34.406Z,12.72
2022-08-31T06:38:44.289Z,12.81
2022-08-31T06:40:06.346Z,12.86
2022-08-31T06:41:36.195Z,12.96
2022-08-31T06:43:08.364Z,13.05
2022-08-31T06:44:29.741Z,13.11
2022-08-31T06:45:49.884Z,13.18
2022-08-31T06:47:07.257Z,13.25
2022-08-31T06:48:14.509Z,13.31
2022-08-31T06:49:20.077Z,13.37
2022-08-31T06:50:23.785Z,13.43
2022-08-31T06:51:27.331Z,13.49
2022-08-31T06:52:36.905Z,13.54
2022-08-31T06:54:16.331Z,13.63
2022-08-31T06:56:05.176Z,13.73
2022-08-31T06:57:26.543Z,13.81
2022-08-31T06:58:54.362Z,13.90
2022-08-31T07:00:14.846Z,13.97
2022-08-31T07:01:35.043Z,14.04
2022-08-31T07:02:57.401Z,14.12
2022-08-31T07:04:02.125Z,14.19
2022-08-31T07:05:08.415Z,14.23
2022-08-31T07:06:14.438Z,14.30
2022-08-31T07:07:17.782Z,14.36
2022-08-31T07:08:19.998Z,14.41
2022-08-31T07:09:24.040Z,14.47
2022-08-31T07:10:26.123Z,14.52
2022-08-31T07:11:32.413Z,14.58
2022-08-31T07:12:34.619Z,14.66
2022-08-31T07:13:37.679Z,14.72
2022-08-31T07:14:40.891Z,14.78
2022-08-31T07:15:43.003Z,14.84
2022-08-31T07:16:46.956Z,14.90
2022-08-31T07:17:49.860Z,14.96
2022-08-31T07:18:54.673Z,15.00
2022-08-31T07:19:58.406Z,15.08
2022-08-31T07:21:15.488Z,15.14
2022-08-31T07:22:18.605Z,15.20
2022-08-31T07:23:24.532Z,15.27
2022-08-31T07:24:39.215Z,15.34
2022-08-31T07:25:42.351Z,15.39
2022-08-31T07:26:48.065Z,15.46
2022-08-31T07:27:55.676Z,15.52
2022-08-31T07:29:00.401Z,15.59
2022-08-31T07:30:03.569Z,15.66
2022-08-31T07:31:09.664Z,15.73
2022-08-31T07:32:14.798Z,15.80
2022-08-31T07:33:19.552Z,15.84
2022-08-31T07:34:30.543Z,15.92
2022-08-31T07:35:52.140Z,16.00
2022-08-31T07:37:22.938Z,16.06
2022-08-31T07:38:43.745Z,16.13
2022-08-31T07:40:12.525Z,16.20
2022-08-31T07:41:33.328Z,16.29
2022-08-31T07:42:43.376Z,16.30
2022-08-31T07:43:45.660Z,16.43
2022-08-31T07:44:53.295Z,16.44
2022-08-31T07:45:56.083Z,16.53
2022-08-31T07:47:01.850Z,16.59
2022-08-31T07:48:06.685Z,16.65
2022-08-31T07:49:26.521Z,16.72
2022-08-31T07:50:54.314Z,16.79
2022-08-31T07:52:24.320Z,16.88
2022-08-31T07:54:04.914Z,16.95
2022-08-31T07:55:19.922Z,17.04
2022-08-31T07:56:34.625Z,17.08
2022-08-31T07:57:50.848Z,17.15
2022-08-31T07:58:53.180Z,17.21
2022-08-31T08:00:01.284Z,17.27
2022-08-31T08:01:04.404Z,17.33
2022-08-31T08:02:07.667Z,17.38
2022-08-31T08:03:13.164Z,17.44
2022-08-31T08:04:45.336Z,17.52
2022-08-31T08:06:28.483Z,17.60
2022-08-31T08:07:42.756Z,17.67
2022-08-31T08:09:24.398Z,17.72
2022-08-31T08:11:03.586Z,17.80
2022-08-31T08:12:24.551Z,17.84
2022-08-31T08:13:50.634Z,17.89
2022-08-31T08:15:05.430Z,17.94
2022-08-31T08:16:31.042Z,17.98
2022-08-31T08:17:57.603Z,18.03
2022-08-31T08:19:04.426Z,18.07
2022-08-31T08:20:13.593Z,18.08
2022-08-31T08:21:17.475Z,18.16
2022-08-31T08:22:48.426Z,18.20
2022-08-31T08:24:02.924Z,18.27
2022-08-31T08:25:26.036Z,18.31
2022-08-31T08:26:54.263Z,18.36
2022-08-31T08:28:28.981Z,18.39
2022-08-31T08:29:33.755Z,18.42
2022-08-31T08:30:37.751Z,18.47
2022-08-31T08:31:41.914Z,18.49
2022-08-31T08:32:44.281Z,18.51
2022-08-31T08:33:47.544Z,18.52
2022-08-31T08:34:49.852Z,18.55
2022-08-31T08:35:57.984Z,18.58
2022-08-31T08:37:01.837Z,18.60
2022-08-31T08:38:07.717Z,18.64
2022-08-31T08:39:13.386Z,18.68
2022-08-31T08:40:30.851Z,18.72
2022-08-31T08:41:37.595Z,18.75
2022-08-31T08:42:39.636Z,18.80
2022-08-31T08:43:47.885Z,18.85
2022-08-31T08:44:54.728Z,18.88
2022-08-31T08:46:06.844Z,18.89
2022-08-31T08:47:26.059Z,18.93
2022-08-31T08:48:40.809Z,18.94
2022-08-31T08:49:54.023Z,18.95
2022-08-31T08:50:58.748Z,18.93
2022-08-31T08:52:16.033Z,18.89
2022-08-31T08:53:22.878Z,18.84
2022-08-31T08:54:39.981Z,18.85
2022-08-31T08:55:43.869Z,18.85
2022-08-31T08:56:49.242Z,18.86
2022-08-31T08:57:56.663Z,18.88
2022-08-31T08:58:59.009Z,18.89
2022-08-31T09:00:11.087Z,18.90
2022-08-31T09:01:25.705Z,18.93
2022-08-31T09:02:41.149Z,18.95
2022-08-31T09:03:49.817Z,18.96
2022-08-31T09:05:21.088Z,18.97
2022-08-31T09:06:45.413Z,18.99
2022-08-31T09:08:15.168Z,19.00
2022-08-31T09:09:30.638Z,19.02
2022-08-31T09:10:43.036Z,19.04
2022-08-31T09:12:01.043Z,19.09
2022-08-31T09:13:14.534Z,19.17
2022-08-31T09:14:29.784Z,19.24
2022-08-31T09:15:41.908Z,19.30
2022-08-31T09:16:56.241Z,19.37
2022-08-31T09:18:05.405Z,19.46
2022-08-31T09:19:12.342Z,19.52
2022-08-31T09:20:16.959Z,19.61
2022-08-31T09:21:25.963Z,19.63
2022-08-31T09:22:30.536Z,19.75
2022-08-31T09:23:38.757Z,19.84
2022-08-31T09:24:41.746Z,19.93
2022-08-31T09:26:27.750Z,20.04
2022-08-31T09:27:46.754Z,20.13
2022-08-31T09:28:52.914Z,20.18
2022-08-31T09:29:57.141Z,20.23
2022-08-31T09:31:00.235Z,20.28
2022-08-31T09:32:06.488Z,20.30
2022-08-31T09:33:18.519Z,20.34
2022-08-31T09:34:31.287Z,20.39
2022-08-31T09:35:41.373Z,20.42
2022-08-31T09:36:44.409Z,20.47
2022-08-31T09:37:59.133Z,20.52
2022-08-31T09:39:16.122Z,20.57
2022-08-31T09:40:23.417Z,20.64
2022-08-31T09:41:35.476Z,20.68
2022-08-31T09:42:38.528Z,20.71
2022-08-31T09:43:41.965Z,20.73
2022-08-31T09:44:48.153Z,20.70
2022-08-31T09:45:58.321Z,20.67
2022-08-31T09:47:03.856Z,20.66
2022-08-31T09:48:08.895Z,20.63
2022-08-31T09:49:19.478Z,20.66
2022-08-31T09:50:26.108Z,20.69
2022-08-31T09:51:33.842Z,20.70
2022-08-31T09:52:55.422Z,20.74
2022-08-31T09:54:22.540Z,20.81
2022-08-31T09:55:28.709Z,20.88
2022-08-31T09:56:32.563Z,20.95
2022-08-31T09:57:53.072Z,21.03
2022-08-31T09:59:00.606Z,21.11
2022-08-31T10:00:03.807Z,21.17
2022-08-31T10:01:30.465Z,21.25
2022-08-31T10:02:38.109Z,21.30
2022-08-31T10:03:45.554Z,21.38
2022-08-31T10:04:52.244Z,21.45
2022-08-31T10:05:55.253Z,21.50
2022-08-31T10:07:06.230Z,21.55
2022-08-31T10:08:20.457Z,21.58
2022-08-31T10:09:33.495Z,21.60
2022-08-31T10:10:40.393Z,21.61
2022-08-31T10:11:47.727Z,21.61
2022-08-31T10:12:57.391Z,21.61
2022-08-31T10:14:04.513Z,21.64
2022-08-31T10:15:15.796Z,21.69
2022-08-31T10:16:26.132Z,21.72
2022-08-31T10:17:36.115Z,21.79
2022-08-31T10:18:50.948Z,21.86
2022-08-31T10:19:59.764Z,21.92
2022-08-31T10:21:07.897Z,21.97
2022-08-31T10:22:25.477Z,21.99
2022-08-31T10:23:34.916Z,22.02
2022-08-31T10:24:46.221Z,22.02
2022-08-31T10:25:58.404Z,22.01
2022-08-31T10:27:14.999Z,22.02
2022-08-31T10:28:28.628Z,22.03
2022-08-31T10:29:39.844Z,21.97
2022-08-31T10:30:52.936Z,21.99
2022-08-31T10:31:58.761Z,21.94
2022-08-31T10:33:14.746Z,21.82
2022-08-31T10:34:41.595Z,21.76
2022-08-31T10:35:52.874Z,21.62
2022-08-31T10:36:59.963Z,21.51
2022-08-31T10:38:15.696Z,21.45
2022-08-31T10:39:34.142Z,21.38
2022-08-31T10:40:44.590Z,21.33
2022-08-31T10:41:51.209Z,21.28
2022-08-31T10:43:08.700Z,21.24
2022-08-31T10:44:18.220Z,21.24
2022-08-31T10:45:23.339Z,21.24
2022-08-31T10:46:26.714Z,21.25
2022-08-31T10:47:32.920Z,21.32
2022-08-31T10:48:41.145Z,21.42
2022-08-31T10:49:43.187Z,21.52
2022-08-31T10:50:53.037Z,21.62
2022-08-31T10:52:03.255Z,21.73
2022-08-31T10:53:15.707Z,21.82
2022-08-31T10:54:30.988Z,21.91
2022-08-31T10:55:40.413Z,21.97
2022-08-31T10:56:59.239Z,22.02
2022-08-31T10:58:14.230Z,22.03
2022-08-31T10:59:25.961Z,22.03
2022-08-31T11:00:47.508Z,22.02
2022-08-31T11:01:59.873Z,21.96
2022-08-31T11:03:09.380Z,21.89
2022-08-31T11:04:42.350Z,21.79
2022-08-31T11:05:53.469Z,21.70
2022-08-31T11:08:11.360Z,21.65
2022-08-31T11:09:20.386Z,21.72
2022-08-31T11:10:32.330Z,21.78
2022-08-31T11:11:43.446Z,21.84
2022-08-31T11:12:52.215Z,21.91
2022-08-31T11:14:14.706Z,21.94
2022-08-31T11:15:41.111Z,21.90
2022-08-31T11:16:59.549Z,21.84
2022-08-31T11:18:26.273Z,21.76
2022-08-31T11:19:57.030Z,21.65
2022-08-31T11:21:35.509Z,21.55
2022-08-31T11:23:12.918Z,21.46
2022-08-31T11:24:34.986Z,21.44
2022-08-31T11:26:08.652Z,21.51
2022-08-31T11:27:21.097Z,21.61
2022-08-31T11:28:32.166Z,21.69
2022-08-31T11:29:44.253Z,21.77
2022-08-31T11:30:50.174Z,21.79
2022-08-31T11:31:55.865Z,21.78
2022-08-31T11:33:00.346Z,21.70
2022-08-31T11:34:16.377Z,21.65
2022-08-31T11:36:05.598Z,21.56
2022-08-31T11:37:56.749Z,21.44
2022-08-31T11:39:22.482Z,21.35
2022-08-31T11:40:58.916Z,21.32
2022-08-31T11:42:02.508Z,21.35
2022-08-31T11:43:06.140Z,21.41
2022-08-31T11:44:11.077Z,21.47
2022-08-31T11:45:29.979Z,21.57
2022-08-31T11:47:05.138Z,21.69
2022-08-31T11:48:29.931Z,21.84
2022-08-31T11:49:40.912Z,22.01
2022-08-31T11:51:05.096Z,22.19
2022-08-31T11:52:29.638Z,22.32
2022-08-31T11:53:36.541Z,22.49
2022-08-31T11:55:02.886Z,22.65
2022-08-31T11:56:07.099Z,22.78
2022-08-31T13:08:50.958Z,24.25
2022-08-31T13:10:03.349Z,24.59
2022-08-31T13:11:25.716Z,24.91
2022-08-31T13:12:38.768Z,25.13
2022-08-31T13:13:41.125Z,25.18
2022-08-31T13:14:44.991Z,25.16
2022-08-31T13:15:46.940Z,25.08
2022-08-31T13:16:53.157Z,24.93
2022-08-31T13:17:56.855Z,24.77
2022-08-31T13:19:03.343Z,24.61
2022-08-31T13:20:07.866Z,24.47
2022-08-31T13:21:11.007Z,24.41
2022-08-31T13:22:16.994Z,24.44
2022-08-31T13:23:27.298Z,24.58
2022-08-31T13:24:34.228Z,24.78
2022-08-31T13:25:36.788Z,24.99
2022-08-31T13:26:39.994Z,25.18
2022-08-31T13:27:48.097Z,25.39
2022-08-31T13:28:52.563Z,25.57
2022-08-31T13:29:56.905Z,25.72
2022-08-31T13:31:03.528Z,25.85
2022-08-31T13:32:05.794Z,25.99
2022-08-31T13:33:23.166Z,26.08
2022-08-31T13:34:25.886Z,26.12
2022-08-31T13:35:37.055Z,26.12
2022-08-31T13:36:44.080Z,26.09
2022-08-31T13:37:52.624Z,26.04
2022-08-31T13:38:55.988Z,26.00
2022-08-31T13:40:06.309Z,25.94
2022-08-31T13:41:18.209Z,25.88
2022-08-31T13:42:32.884Z,25.81
2022-08-31T13:43:37.417Z,25.75
2022-08-31T13:44:44.207Z,25.67
2022-08-31T13:45:58.153Z,25.62
2022-08-31T13:47:05.436Z,25.55
2022-08-31T13:48:14.031Z,25.50
2022-08-31T13:49:32.416Z,25.47
2022-08-31T13:50:52.331Z,25.45
2022-08-31T13:51:55.358Z,25.43
2022-08-31T13:53:25.466Z,25.35
2022-08-31T13:54:30.482Z,25.28
2022-08-31T13:55:36.936Z,25.21
2022-08-31T13:56:58.893Z,25.16
2022-08-31T13:58:04.593Z,25.07
2022-08-31T13:59:33.634Z,24.97
2022-08-31T14:00:41.855Z,24.88
2022-08-31T14:01:47.866Z,24.77
2022-08-31T14:02:50.969Z,24.66
2022-08-31T14:03:57.978Z,24.52
2022-08-31T14:05:03.524Z,24.40
2022-08-31T14:06:23.792Z,24.29
2022-08-31T14:07:29.748Z,24.18
2022-08-31T14:08:33.024Z,24.10
2022-08-31T14:09:36.562Z,24.02
2022-08-31T14:10:47.905Z,23.91
2022-08-31T14:11:53.322Z,23.84
2022-08-31T14:12:59.545Z,23.73
2022-08-31T14:14:06.020Z,23.63
2022-08-31T14:15:21.607Z,23.50
2022-08-31T14:16:32.459Z,23.40
2022-08-31T14:17:36.921Z,23.31
2022-08-31T14:18:45.132Z,23.23
2022-08-31T14:19:47.068Z,23.15
2022-08-31T14:21:18.965Z,23.08
2022-08-31T14:22:17.259Z,23.02
2022-08-31T14:23:35.029Z,22.95
2022-08-31T14:24:37.849Z,22.88
2022-08-31T14:25:41.149Z,22.83
2022-08-31T14:26:45.090Z,22.77
2022-08-31T14:27:47.034Z,22.71
2022-08-31T14:28:53.341Z,22.65
2022-08-31T14:29:55.856Z,22.62
2022-08-31T14:31:12.469Z,22.59
2022-08-31T14:32:15.567Z,22.54
2022-08-31T14:33:17.676Z,22.49
2022-08-31T14:34:24.010Z,22.45
2022-08-31T14:35:27.126Z,22.39
2022-08-31T14:36:35.032Z,22.33
2022-08-31T14:37:38.198Z,22.30
2022-08-31T14:38:41.591Z,22.28
2022-08-31T14:39:46.309Z,22.28
2022-08-31T14:40:50.045Z,22.28
2022-08-31T14:41:54.871Z,22.28
2022-08-31T14:42:57.903Z,22.29
2022-08-31T14:44:06.962Z,22.32
2022-08-31T14:45:18.529Z,22.35
2022-08-31T14:46:27.604Z,22.42
2022-08-31T14:47:34.241Z,22.50
2022-08-31T14:48:36.570Z,22.61
2022-08-31T14:49:44.093Z,22.74
2022-08-31T14:50:46.022Z,22.88
2022-08-31T14:51:48.913Z,23.04
2022-08-31T14:52:52.859Z,23.20
2022-08-31T14:53:57.077Z,23.34
2022-08-31T14:55:02.641Z,23.50
2022-08-31T14:56:08.738Z,23.70
2022-08-31T14:57:13.544Z,23.87
2022-08-31T14:58:15.933Z,24.10
2022-08-31T14:59:21.995Z,24.31
2022-08-31T15:00:25.370Z,24.52
2022-08-31T15:01:33.483Z,24.72
2022-08-31T15:02:36.770Z,24.92
2022-08-31T15:03:41.374Z,25.11
2022-08-31T15:04:45.507Z,25.30
2022-08-31T15:05:49.881Z,25.48
2022-08-31T15:07:10.069Z,25.62
2022-08-31T15:08:13.176Z,25.77
2022-08-31T15:09:15.147Z,25.83
2022-08-31T15:10:19.131Z,25.90
2022-08-31T15:11:22.408Z,25.97
2022-08-31T15:12:25.694Z,26.01
2022-08-31T15:13:33.865Z,25.99
2022-08-31T15:14:37.919Z,25.89
2022-08-31T15:15:39.867Z,25.76
2022-08-31T15:16:45.213Z,25.61
2022-08-31T15:17:49.063Z,25.40
2022-08-31T15:18:54.345Z,25.20
2022-08-31T15:19:57.798Z,24.99
2022-08-31T15:21:02.240Z,24.78
2022-08-31T15:22:09.488Z,24.60
2022-08-31T15:23:11.459Z,24.42
2022-08-31T15:24:15.632Z,24.26
2022-08-31T15:25:19.851Z,24.11
2022-08-31T15:26:23.609Z,23.99
2022-08-31T15:27:28.673Z,23.87
2022-08-31T15:28:37.283Z,23.77
2022-08-31T15:29:40.925Z,23.68
2022-08-31T15:30:43.046Z,23.61
2022-08-31T15:31:49.677Z,23.56
2022-08-31T15:32:54.315Z,23.54
2022-08-31T15:34:00.356Z,23.53
2022-08-31T15:35:03.635Z,23.59
2022-08-31T15:36:09.191Z,23.71
2022-08-31T15:37:12.327Z,23.88
2022-08-31T15:38:14.391Z,24.10
2022-08-31T15:39:17.397Z,24.35
2022-08-31T15:40:21.361Z,24.62
2022-08-31T15:41:30.269Z,24.87
2022-08-31T15:42:34.087Z,25.14
2022-08-31T15:43:37.055Z,25.37
2022-08-31T15:44:41.142Z,25.61
2022-08-31T15:45:44.614Z,25.82
2022-08-31T15:47:06.344Z,26.05
2022-08-31T15:48:27.214Z,26.34
2022-08-31T15:49:30.280Z,26.59
2022-08-31T15:50:32.727Z,26.81
2022-08-31T15:51:36.131Z,27.00
2022-08-31T15:52:51.054Z,27.17
2022-08-31T15:54:18.826Z,27.35
2022-08-31T15:55:26.700Z,27.50
2022-08-31T15:56:32.878Z,27.52
2022-08-31T15:57:34.859Z,27.52
2022-08-31T15:58:38.969Z,27.47
2022-08-31T15:59:43.775Z,27.39